sensor_id;sensor_type;location;lat;lon;timestamp;P1;P2;P0
61804;PMS7003;47725;47.912;7.356;2023-04-24T00:03:31;0.00;0.00;
61804;PMS7003;47725;47.912;7.356;2023-04-24T00:07:31;0.00;0.00;
61804;PMS7003;47725;47.912;7.356;2023-04-24T00:11:31;0.00;0.00;
61804;PMS7003;47725;47.912;7.356;2023-04-24T00:15:31;0.00;0.00;
61804;PMS7003;47725;47.912;7.356;2023-04-24T00:19:31;0.00;0.00;
61804;PMS7003;47725;47.912;7.356;2023-04-24T00:23:31;0.00;0.00;
61804;PMS7003;47725;47.912;7.356;2023-04-24T00:27:31;0.00;0.00;
61804;PMS7003;47725;47.912;7.356;2023-04-24T00:31:31;0.00;0.00;
61804;PMS7003;47725;47.912;7.356;2023-04-24T00:35:31;0.00;0.00;
61804;PMS7003;47725;47.912;7.356;2023-04-24T00:39:31;0.00;0.00;
61804;PMS7003;47725;47.912;7.356;2023-04-24T00:43:31;0.00;0.00;
61804;PMS7003;47725;47.912;7.356;2023-04-24T00:47:31;0.00;0.00;
61804;PMS7003;47725;47.912;7.356;2023-04-24T00:51:31;0.00;0.00;
61804;PMS7003;47725;47.912;7.356;2023-04-24T00:55:31;0.00;0.00;
61804;PMS7003;47725;47.912;7.356;2023-04-24T00:59:31;0.00;0.00;
61804;PMS7003;47725;47.912;7.356;2023-04-24T01:03:31;0.00;0.00;
61804;PMS7003;47725;47.912;7.356;2023-04-24T01:07:31;0.00;0.00;
61804;PMS7003;47725;47.912;7.356;2023-04-24T01:11:31;0.00;0.00;
61804;PMS7003;47725;47.912;7.356;2023-04-24T01:15:31;0.00;0.00;
61804;PMS7003;47725;47.912;7.356;2023-04-24T01:19:31;0.00;0.00;
61804;PMS7003;47725;47.912;7.356;2023-04-24T01:23:31;0.00;0.00;
61804;PMS7003;47725;47.912;7.356;2023-04-24T01:27:31;0.00;0.00;
61804;PMS7003;47725;47.912;7.356;2023-04-24T01:31:31;0.00;0.00;
61804;PMS7003;47725;47.912;7.356;2023-04-24T01:35:31;0.00;0.00;
61804;PMS7003;47725;47.912;7.356;2023-04-24T01:39:31;0.00;0.00;
61804;PMS7003;47725;47.912;7.356;2023-04-24T01:43:31;0.00;0.00;
61804;PMS7003;47725;47.912;7.356;2023-04-24T01:47:31;0.00;0.00;
61804;PMS7003;47725;47.912;7.356;2023-04-24T01:51:31;0.00;0.00;
61804;PMS7003;47725;47.912;7.356;2023-04-24T01:55:31;0.00;0.00;
61804;PMS7003;47725;47.912;7.356;2023-04-24T01:59:31;0.00;0.00;
61804;PMS7003;47725;47.912;7.356;2023-04-24T02:03:31;0.00;0.00;
61804;PMS7003;47725;47.912;7.356;2023-04-24T02:07:31;0.00;0.00;
61804;PMS7003;47725;47.912;7.356;2023-04-24T02:11:31;0.00;0.00;
61804;PMS7003;47725;47.912;7.356;2023-04-24T02:15:31;0.00;0.00;
61804;PMS7003;47725;47.912;7.356;2023-04-24T02:19:31;0.00;0.00;
61804;PMS7003;47725;47.912;7.356;2023-04-24T02:23:31;0.00;0.00;
61804;PMS7003;47725;47.912;7.356;2023-04-24T02:27:31;0.00;0.00;
61804;PMS7003;47725;47.912;7.356;2023-04-24T02:31:31;0.00;0.00;
61804;PMS7003;47725;47.912;7.356;2023-04-24T02:35:31;0.00;0.00;
61804;PMS7003;47725;47.912;7.356;2023-04-24T02:39:31;0.00;0.00;
61804;PMS7003;47725;47.912;7.356;2023-04-24T02:43:31;0.00;0.00;
61804;PMS7003;47725;47.912;7.356;2023-04-24T02:47:31;0.00;0.00;
61804;PMS7003;47725;47.912;7.356;2023-04-24T02:51:31;0.00;0.00;
61804;PMS7003;47725;47.912;7.356;2023-04-24T02:55:31;0.00;0.00;
61804;PMS7003;47725;47.912;7.356;2023-04-24T02:59:31;0.00;0.00;
61804;PMS7003;47725;47.912;7.356;2023-04-24T03:03:31;0.00;0.00;
61804;PMS7003;47725;47.912;7.356;2023-04-24T03:07:31;0.00;0.00;
61804;PMS7003;47725;47.912;7.356;2023-04-24T03:11:31;0.00;0.00;
61804;PMS7003;47725;47.912;7.356;2023-04-24T03:15:31;0.00;0.00;
61804;PMS7003;47725;47.912;7.356;2023-04-24T03:19:31;0.00;0.00;
61804;PMS7003;47725;47.912;7.356;2023-04-24T03:23:31;0.00;0.00;
61804;PMS7003;47725;47.912;7.356;2023-04-24T03:27:31;0.00;0.00;
61804;PMS7003;47725;47.912;7.356;2023-04-24T03:31:31;0.00;0.00;
61804;PMS7003;47725;47.912;7.356;2023-04-24T03:35:31;0.00;0.00;
61804;PMS7003;47725;47.912;7.356;2023-04-24T03:39:31;0.00;0.00;
61804;PMS7003;47725;47.912;7.356;2023-04-24T03:43:31;0.00;0.00;
61804;PMS7003;47725;47.912;7.356;2023-04-24T03:47:31;0.00;0.00;
61804;PMS7003;47725;47.912;7.356;2023-04-24T03:51:30;0.00;0.00;
61804;PMS7003;47725;47.912;7.356;2023-04-24T03:55:30;0.00;0.00;
61804;PMS7003;47725;47.912;7.356;2023-04-24T03:59:31;0.00;0.00;
61804;PMS7003;47725;47.912;7.356;2023-04-24T04:03:30;0.00;0.00;
61804;PMS7003;47725;47.912;7.356;2023-04-24T04:07:30;0.00;0.00;
61804;PMS7003;47725;47.912;7.356;2023-04-24T04:11:30;0.00;0.00;
61804;PMS7003;47725;47.912;7.356;2023-04-24T04:15:30;0.00;0.00;
61804;PMS7003;47725;47.912;7.356;2023-04-24T04:19:30;0.00;0.00;
61804;PMS7003;47725;47.912;7.356;2023-04-24T04:23:30;0.00;0.00;
61804;PMS7003;47725;47.912;7.356;2023-04-24T04:27:30;0.00;0.00;
61804;PMS7003;47725;47.912;7.356;2023-04-24T04:31:30;0.00;0.00;
61804;PMS7003;47725;47.912;7.356;2023-04-24T04:35:30;0.00;0.00;
61804;PMS7003;47725;47.912;7.356;2023-04-24T04:39:30;0.00;0.00;
61804;PMS7003;47725;47.912;7.356;2023-04-24T04:43:30;0.00;0.00;
61804;PMS7003;47725;47.912;7.356;2023-04-24T04:47:30;0.00;0.00;
61804;PMS7003;47725;47.912;7.356;2023-04-24T04:51:30;0.00;0.00;
61804;PMS7003;47725;47.912;7.356;2023-04-24T04:55:30;0.00;0.00;
61804;PMS7003;47725;47.912;7.356;2023-04-24T04:59:30;0.00;0.00;
61804;PMS7003;47725;47.912;7.356;2023-04-24T05:03:30;0.00;0.00;
61804;PMS7003;47725;47.912;7.356;2023-04-24T05:07:30;0.00;0.00;
61804;PMS7003;47725;47.912;7.356;2023-04-24T05:11:30;0.00;0.00;
61804;PMS7003;47725;47.912;7.356;2023-04-24T05:15:30;0.00;0.00;
61804;PMS7003;47725;47.912;7.356;2023-04-24T05:19:30;0.00;0.00;
61804;PMS7003;47725;47.912;7.356;2023-04-24T05:23:30;0.00;0.00;
61804;PMS7003;47725;47.912;7.356;2023-04-24T05:27:30;0.00;0.00;
61804;PMS7003;47725;47.912;7.356;2023-04-24T05:31:30;0.00;0.00;
61804;PMS7003;47725;47.912;7.356;2023-04-24T05:35:30;0.00;0.00;
61804;PMS7003;47725;47.912;7.356;2023-04-24T05:39:30;0.00;0.00;
61804;PMS7003;47725;47.912;7.356;2023-04-24T05:43:30;0.00;0.00;
61804;PMS7003;47725;47.912;7.356;2023-04-24T05:47:30;0.00;0.00;
61804;PMS7003;47725;47.912;7.356;2023-04-24T05:51:30;0.00;0.00;
61804;PMS7003;47725;47.912;7.356;2023-04-24T05:55:30;0.00;0.00;
61804;PMS7003;47725;47.912;7.356;2023-04-24T05:59:30;0.00;0.00;
61804;PMS7003;47725;47.912;7.356;2023-04-24T06:03:31;0.00;0.00;
61804;PMS7003;47725;47.912;7.356;2023-04-24T06:07:31;0.00;0.00;
61804;PMS7003;47725;47.912;7.356;2023-04-24T06:11:30;0.00;0.00;
61804;PMS7003;47725;47.912;7.356;2023-04-24T06:15:30;0.00;0.00;
61804;PMS7003;47725;47.912;7.356;2023-04-24T06:19:30;0.00;0.00;
61804;PMS7003;47725;47.912;7.356;2023-04-24T06:23:30;0.00;0.00;
61804;PMS7003;47725;47.912;7.356;2023-04-24T06:27:30;0.00;0.00;
61804;PMS7003;47725;47.912;7.356;2023-04-24T06:31:30;0.00;0.00;
61804;PMS7003;47725;47.912;7.356;2023-04-24T06:35:30;0.00;0.00;
61804;PMS7003;47725;47.912;7.356;2023-04-24T06:39:30;0.00;0.00;
61804;PMS7003;47725;47.912;7.356;2023-04-24T06:43:31;0.00;0.00;
61804;PMS7003;47725;47.912;7.356;2023-04-24T06:47:30;0.00;0.00;
61804;PMS7003;47725;47.912;7.356;2023-04-24T06:51:30;0.00;0.00;
61804;PMS7003;47725;47.912;7.356;2023-04-24T06:55:30;0.00;0.00;
61804;PMS7003;47725;47.912;7.356;2023-04-24T06:59:30;0.00;0.00;
61804;PMS7003;47725;47.912;7.356;2023-04-24T07:03:30;0.00;0.00;
61804;PMS7003;47725;47.912;7.356;2023-04-24T07:07:30;0.00;0.00;
61804;PMS7003;47725;47.912;7.356;2023-04-24T07:11:30;0.00;0.00;
61804;PMS7003;47725;47.912;7.356;2023-04-24T07:15:30;0.00;0.00;
61804;PMS7003;47725;47.912;7.356;2023-04-24T07:19:30;0.00;0.00;
61804;PMS7003;47725;47.912;7.356;2023-04-24T07:23:30;0.00;0.00;
61804;PMS7003;47725;47.912;7.356;2023-04-24T07:27:30;0.00;0.00;
61804;PMS7003;47725;47.912;7.356;2023-04-24T07:31:30;0.00;0.00;
61804;PMS7003;47725;47.912;7.356;2023-04-24T07:35:30;0.00;0.00;
61804;PMS7003;47725;47.912;7.356;2023-04-24T07:39:30;0.00;0.00;
61804;PMS7003;47725;47.912;7.356;2023-04-24T07:43:30;0.00;0.00;
61804;PMS7003;47725;47.912;7.356;2023-04-24T07:47:30;0.00;0.00;
61804;PMS7003;47725;47.912;7.356;2023-04-24T07:51:30;0.00;0.00;
61804;PMS7003;47725;47.912;7.356;2023-04-24T07:55:30;0.00;0.00;
61804;PMS7003;47725;47.912;7.356;2023-04-24T07:59:30;0.00;0.00;
61804;PMS7003;47725;47.912;7.356;2023-04-24T08:03:30;0.00;0.00;
61804;PMS7003;47725;47.912;7.356;2023-04-24T08:07:30;0.00;0.00;
61804;PMS7003;47725;47.912;7.356;2023-04-24T08:11:30;0.00;0.00;
61804;PMS7003;47725;47.912;7.356;2023-04-24T08:15:30;0.00;0.00;
61804;PMS7003;47725;47.912;7.356;2023-04-24T08:19:30;0.00;0.00;
61804;PMS7003;47725;47.912;7.356;2023-04-24T08:23:30;0.00;0.00;
61804;PMS7003;47725;47.912;7.356;2023-04-24T08:27:30;0.00;0.00;
61804;PMS7003;47725;47.912;7.356;2023-04-24T08:31:30;0.00;0.00;
61804;PMS7003;47725;47.912;7.356;2023-04-24T08:35:30;0.00;0.00;
61804;PMS7003;47725;47.912;7.356;2023-04-24T08:39:30;0.00;0.00;
61804;PMS7003;47725;47.912;7.356;2023-04-24T08:43:30;0.00;0.00;
61804;PMS7003;47725;47.912;7.356;2023-04-24T08:47:30;0.00;0.00;
61804;PMS7003;47725;47.912;7.356;2023-04-24T08:51:30;0.00;0.00;
61804;PMS7003;47725;47.912;7.356;2023-04-24T08:55:30;0.00;0.00;
61804;PMS7003;47725;47.912;7.356;2023-04-24T08:59:30;0.00;0.00;
61804;PMS7003;47725;47.912;7.356;2023-04-24T09:03:30;0.00;0.00;
61804;PMS7003;47725;47.912;7.356;2023-04-24T09:07:30;0.00;0.00;
61804;PMS7003;47725;47.912;7.356;2023-04-24T09:11:30;0.00;0.00;
61804;PMS7003;47725;47.912;7.356;2023-04-24T09:15:31;0.00;0.00;
61804;PMS7003;47725;47.912;7.356;2023-04-24T09:19:30;0.00;0.00;
61804;PMS7003;47725;47.912;7.356;2023-04-24T09:23:31;0.00;0.00;
61804;PMS7003;47725;47.912;7.356;2023-04-24T09:27:30;0.00;0.00;
61804;PMS7003;47725;47.912;7.356;2023-04-24T09:31:30;0.00;0.00;
61804;PMS7003;47725;47.912;7.356;2023-04-24T09:35:30;0.00;0.00;
61804;PMS7003;47725;47.912;7.356;2023-04-24T09:39:30;0.00;0.00;
61804;PMS7003;47725;47.912;7.356;2023-04-24T09:43:30;0.00;0.00;
61804;PMS7003;47725;47.912;7.356;2023-04-24T09:47:37;0.00;0.00;
61804;PMS7003;47725;47.912;7.356;2023-04-24T09:51:34;0.00;0.00;
61804;PMS7003;47725;47.912;7.356;2023-04-24T09:55:30;0.00;0.00;
61804;PMS7003;47725;47.912;7.356;2023-04-24T09:59:30;0.00;0.00;
61804;PMS7003;47725;47.912;7.356;2023-04-24T10:03:31;0.00;0.00;
61804;PMS7003;47725;47.912;7.356;2023-04-24T10:07:32;0.00;0.00;
61804;PMS7003;47725;47.912;7.356;2023-04-24T10:11:30;0.00;0.00;
61804;PMS7003;47725;47.912;7.356;2023-04-24T10:15:30;0.00;0.00;
61804;PMS7003;47725;47.912;7.356;2023-04-24T10:19:30;0.00;0.00;
61804;PMS7003;47725;47.912;7.356;2023-04-24T10:23:30;0.00;0.00;
61804;PMS7003;47725;47.912;7.356;2023-04-24T10:27:31;0.00;0.00;
61804;PMS7003;47725;47.912;7.356;2023-04-24T10:31:31;0.00;0.00;
61804;PMS7003;47725;47.912;7.356;2023-04-24T10:35:31;0.00;0.00;
61804;PMS7003;47725;47.912;7.356;2023-04-24T10:39:30;0.00;0.00;
61804;PMS7003;47725;47.912;7.356;2023-04-24T10:43:30;0.00;0.00;
61804;PMS7003;47725;47.912;7.356;2023-04-24T10:47:38;0.00;0.00;
61804;PMS7003;47725;47.912;7.356;2023-04-24T10:55:39;0.00;0.00;
61804;PMS7003;47725;47.912;7.356;2023-04-24T10:59:34;0.00;0.00;
61804;PMS7003;47725;47.912;7.356;2023-04-24T11:03:31;0.00;0.00;
61804;PMS7003;47725;47.912;7.356;2023-04-24T11:07:57;0.00;0.00;
61804;PMS7003;47725;47.912;7.356;2023-04-24T11:11:30;0.00;0.00;
61804;PMS7003;47725;47.912;7.356;2023-04-24T11:15:30;0.00;0.00;
61804;PMS7003;47725;47.912;7.356;2023-04-24T11:19:30;0.00;0.00;
61804;PMS7003;47725;47.912;7.356;2023-04-24T11:23:35;0.00;0.00;
61804;PMS7003;47725;47.912;7.356;2023-04-24T11:27:31;0.00;0.00;
61804;PMS7003;47725;47.912;7.356;2023-04-24T11:31:39;0.00;0.00;
61804;PMS7003;47725;47.912;7.356;2023-04-24T11:35:30;0.00;0.00;
61804;PMS7003;47725;47.912;7.356;2023-04-24T11:39:36;0.00;0.00;
61804;PMS7003;47725;47.912;7.356;2023-04-24T11:43:30;0.00;0.00;
61804;PMS7003;47725;47.912;7.356;2023-04-24T11:47:30;0.00;0.00;
61804;PMS7003;47725;47.912;7.356;2023-04-24T11:51:30;0.00;0.00;
61804;PMS7003;47725;47.912;7.356;2023-04-24T11:55:30;0.00;0.00;
61804;PMS7003;47725;47.912;7.356;2023-04-24T11:59:31;0.00;0.00;
61804;PMS7003;47725;47.912;7.356;2023-04-24T12:03:30;0.00;0.00;
61804;PMS7003;47725;47.912;7.356;2023-04-24T12:07:30;0.00;0.00;
61804;PMS7003;47725;47.912;7.356;2023-04-24T12:11:30;0.00;0.00;
61804;PMS7003;47725;47.912;7.356;2023-04-24T12:15:30;0.00;0.00;
61804;PMS7003;47725;47.912;7.356;2023-04-24T12:19:30;0.00;0.00;
61804;PMS7003;47725;47.912;7.356;2023-04-24T12:23:33;0.00;0.00;
61804;PMS7003;47725;47.912;7.356;2023-04-24T12:27:33;0.00;0.00;
61804;PMS7003;47725;47.912;7.356;2023-04-24T12:31:30;0.00;0.00;
61804;PMS7003;47725;47.912;7.356;2023-04-24T12:35:31;0.00;0.00;
61804;PMS7003;47725;47.912;7.356;2023-04-24T12:39:30;0.00;0.00;
61804;PMS7003;47725;47.912;7.356;2023-04-24T12:43:30;0.00;0.00;
61804;PMS7003;47725;47.912;7.356;2023-04-24T12:47:30;0.00;0.00;
61804;PMS7003;47725;47.912;7.356;2023-04-24T12:51:30;0.00;0.00;
61804;PMS7003;47725;47.912;7.356;2023-04-24T12:55:30;0.00;0.00;
61804;PMS7003;47725;47.912;7.356;2023-04-24T12:59:30;0.00;0.00;
61804;PMS7003;47725;47.912;7.356;2023-04-24T13:03:30;0.00;0.00;
61804;PMS7003;47725;47.912;7.356;2023-04-24T13:07:30;0.00;0.00;
61804;PMS7003;47725;47.912;7.356;2023-04-24T13:11:30;0.00;0.00;
61804;PMS7003;47725;47.912;7.356;2023-04-24T13:15:30;0.00;0.00;
61804;PMS7003;47725;47.912;7.356;2023-04-24T13:19:34;0.00;0.00;
61804;PMS7003;47725;47.912;7.356;2023-04-24T13:23:30;0.00;0.00;
61804;PMS7003;47725;47.912;7.356;2023-04-24T13:27:30;0.00;0.00;
61804;PMS7003;47725;47.912;7.356;2023-04-24T13:31:30;0.00;0.00;
61804;PMS7003;47725;47.912;7.356;2023-04-24T13:35:30;0.00;0.00;
61804;PMS7003;47725;47.912;7.356;2023-04-24T13:39:30;0.00;0.00;
61804;PMS7003;47725;47.912;7.356;2023-04-24T13:43:30;0.00;0.00;
61804;PMS7003;47725;47.912;7.356;2023-04-24T13:47:12;0.00;0.00;
61804;PMS7003;47725;47.912;7.356;2023-04-24T13:55:12;1.00;0.00;
61804;PMS7003;47725;47.912;7.356;2023-04-24T13:59:12;0.00;0.00;
61804;PMS7003;47725;47.912;7.356;2023-04-24T14:07:12;1.99;0.00;
61804;PMS7003;47725;47.912;7.356;2023-04-24T14:11:13;1.99;0.00;
61804;PMS7003;47725;47.912;7.356;2023-04-24T14:15:30;1.99;0.00;
61804;PMS7003;47725;47.912;7.356;2023-04-24T14:19:12;1.99;0.00;
61804;PMS7003;47725;47.912;7.356;2023-04-24T14:23:12;1.99;0.00;
61804;PMS7003;47725;47.912;7.356;2023-04-24T14:27:15;1.99;0.99;
61804;PMS7003;47725;47.912;7.356;2023-04-24T14:31:30;1.99;0.99;
61804;PMS7003;47725;47.912;7.356;2023-04-24T14:39:21;1.00;1.00;
61804;PMS7003;47725;47.912;7.356;2023-04-24T14:43:15;1.00;1.00;
61804;PMS7003;47725;47.912;7.356;2023-04-24T14:47:19;1.00;1.00;
61804;PMS7003;47725;47.912;7.356;2023-04-24T15:07:22;1.99;1.99;
61804;PMS7003;47725;47.912;7.356;2023-04-24T15:11:16;1.99;1.99;
61804;PMS7003;47725;47.912;7.356;2023-04-24T15:15:16;1.99;1.99;
61804;PMS7003;47725;47.912;7.356;2023-04-24T15:19:16;1.00;1.00;
61804;PMS7003;47725;47.912;7.356;2023-04-24T15:23:16;1.00;1.00;
61804;PMS7003;47725;47.912;7.356;2023-04-24T15:27:16;1.99;1.00;
61804;PMS7003;47725;47.912;7.356;2023-04-24T15:31:16;1.99;1.00;
61804;PMS7003;47725;47.912;7.356;2023-04-24T15:35:16;1.99;1.00;
61804;PMS7003;47725;47.912;7.356;2023-04-24T15:39:16;2.99;1.00;
61804;PMS7003;47725;47.912;7.356;2023-04-24T15:43:16;2.99;1.00;
61804;PMS7003;47725;47.912;7.356;2023-04-24T15:47:16;2.99;1.00;
61804;PMS7003;47725;47.912;7.356;2023-04-24T15:51:16;2.99;1.00;
61804;PMS7003;47725;47.912;7.356;2023-04-24T15:55:16;2.99;1.00;
61804;PMS7003;47725;47.912;7.356;2023-04-24T15:59:16;1.00;1.00;
61804;PMS7003;47725;47.912;7.356;2023-04-24T16:03:16;1.00;1.00;
61804;PMS7003;47725;47.912;7.356;2023-04-24T16:07:16;1.00;1.00;
61804;PMS7003;47725;47.912;7.356;2023-04-24T16:11:16;1.00;1.00;
61804;PMS7003;47725;47.912;7.356;2023-04-24T16:15:16;1.00;1.00;
61804;PMS7003;47725;47.912;7.356;2023-04-24T16:19:16;1.00;1.00;
61804;PMS7003;47725;47.912;7.356;2023-04-24T16:23:16;1.00;1.00;
61804;PMS7003;47725;47.912;7.356;2023-04-24T16:27:16;4.98;1.00;
61804;PMS7003;47725;47.912;7.356;2023-04-24T16:31:16;4.98;1.00;
61804;PMS7003;47725;47.912;7.356;2023-04-24T16:35:16;4.98;1.00;
61804;PMS7003;47725;47.912;7.356;2023-04-24T16:39:16;2.99;1.00;
61804;PMS7003;47725;47.912;7.356;2023-04-24T16:43:17;2.99;1.00;
61804;PMS7003;47725;47.912;7.356;2023-04-24T16:47:16;4.98;2.99;
61804;PMS7003;47725;47.912;7.356;2023-04-24T16:51:16;4.98;2.99;
61804;PMS7003;47725;47.912;7.356;2023-04-24T16:55:16;4.98;2.99;
61804;PMS7003;47725;47.912;7.356;2023-04-24T16:59:16;5.97;3.98;
61804;PMS7003;47725;47.912;7.356;2023-04-24T17:03:16;5.97;3.98;
61804;PMS7003;47725;47.912;7.356;2023-04-24T17:07:16;4.98;1.99;
61804;PMS7003;47725;47.912;7.356;2023-04-24T17:11:16;4.98;1.99;
61804;PMS7003;47725;47.912;7.356;2023-04-24T17:15:16;4.98;1.99;
61804;PMS7003;47725;47.912;7.356;2023-04-24T17:19:16;1.00;1.00;
61804;PMS7003;47725;47.912;7.356;2023-04-24T17:23:16;1.00;1.00;
61804;PMS7003;47725;47.912;7.356;2023-04-24T17:27:16;1.00;1.00;
61804;PMS7003;47725;47.912;7.356;2023-04-24T17:31:16;1.00;1.00;
61804;PMS7003;47725;47.912;7.356;2023-04-24T17:35:16;1.00;1.00;
61804;PMS7003;47725;47.912;7.356;2023-04-24T17:39:16;1.99;1.99;
61804;PMS7003;47725;47.912;7.356;2023-04-24T17:43:16;1.99;1.99;
61804;PMS7003;47725;47.912;7.356;2023-04-24T17:47:16;1.00;1.00;
61804;PMS7003;47725;47.912;7.356;2023-04-24T17:51:16;1.00;1.00;
61804;PMS7003;47725;47.912;7.356;2023-04-24T17:55:16;1.00;1.00;
61804;PMS7003;47725;47.912;7.356;2023-04-24T17:59:16;2.99;1.99;
61804;PMS7003;47725;47.912;7.356;2023-04-24T18:03:16;2.99;1.99;
61804;PMS7003;47725;47.912;7.356;2023-04-24T18:07:16;1.00;1.00;
61804;PMS7003;47725;47.912;7.356;2023-04-24T18:11:16;1.00;1.00;
61804;PMS7003;47725;47.912;7.356;2023-04-24T18:15:16;1.00;1.00;
61804;PMS7003;47725;47.912;7.356;2023-04-24T18:19:33;1.99;1.00;
61804;PMS7003;47725;47.912;7.356;2023-04-24T18:39:19;0.99;0.99;
61804;PMS7003;47725;47.912;7.356;2023-04-24T18:43:15;0.99;0.99;
61804;PMS7003;47725;47.912;7.356;2023-04-24T18:47:15;0.99;0.99;
61804;PMS7003;47725;47.912;7.356;2023-04-24T18:51:18;0.99;0.99;
61804;PMS7003;47725;47.912;7.356;2023-04-24T18:59:16;0.00;0.00;
61804;PMS7003;47725;47.912;7.356;2023-04-24T19:03:15;0.00;0.00;
61804;PMS7003;47725;47.912;7.356;2023-04-24T19:07:15;1.99;1.99;
61804;PMS7003;47725;47.912;7.356;2023-04-24T19:11:15;1.99;1.99;
61804;PMS7003;47725;47.912;7.356;2023-04-24T19:15:16;1.99;1.99;
61804;PMS7003;47725;47.912;7.356;2023-04-24T19:19:15;0.99;0.99;
61804;PMS7003;47725;47.912;7.356;2023-04-24T19:23:15;0.99;0.99;
61804;PMS7003;47725;47.912;7.356;2023-04-24T19:27:15;1.99;0.99;
61804;PMS7003;47725;47.912;7.356;2023-04-24T19:31:15;1.99;0.99;
61804;PMS7003;47725;47.912;7.356;2023-04-24T19:35:16;1.99;0.99;
61804;PMS7003;47725;47.912;7.356;2023-04-24T19:39:15;0.99;0.99;
61804;PMS7003;47725;47.912;7.356;2023-04-24T19:43:15;0.99;0.99;
61804;PMS7003;47725;47.912;7.356;2023-04-24T19:47:15;0.99;0.99;
61804;PMS7003;47725;47.912;7.356;2023-04-24T19:51:15;0.99;0.99;
61804;PMS7003;47725;47.912;7.356;2023-04-24T19:55:16;0.99;0.99;
61804;PMS7003;47725;47.912;7.356;2023-04-24T19:59:15;0.99;0.99;
61804;PMS7003;47725;47.912;7.356;2023-04-24T20:03:16;0.99;0.99;
61804;PMS7003;47725;47.912;7.356;2023-04-24T20:07:15;0.99;0.99;
61804;PMS7003;47725;47.912;7.356;2023-04-24T20:11:15;0.99;0.99;
61804;PMS7003;47725;47.912;7.356;2023-04-24T20:15:15;0.99;0.99;
61804;PMS7003;47725;47.912;7.356;2023-04-24T20:19:16;2.97;1.98;
61804;PMS7003;47725;47.912;7.356;2023-04-24T20:23:15;2.97;1.98;
61804;PMS7003;47725;47.912;7.356;2023-04-24T20:27:15;2.97;1.98;
61804;PMS7003;47725;47.912;7.356;2023-04-24T20:31:15;2.97;1.98;
61804;PMS7003;47725;47.912;7.356;2023-04-24T20:35:16;2.97;1.98;
61804;PMS7003;47725;47.912;7.356;2023-04-24T20:39:15;1.98;1.98;
61804;PMS7003;47725;47.912;7.356;2023-04-24T20:43:15;1.98;1.98;
61804;PMS7003;47725;47.912;7.356;2023-04-24T20:47:15;1.98;1.98;
61804;PMS7003;47725;47.912;7.356;2023-04-24T20:51:15;1.98;1.98;
61804;PMS7003;47725;47.912;7.356;2023-04-24T20:55:15;1.98;1.98;
61804;PMS7003;47725;47.912;7.356;2023-04-24T20:59:15;1.98;1.98;
61804;PMS7003;47725;47.912;7.356;2023-04-24T21:03:15;1.98;1.98;
61804;PMS7003;47725;47.912;7.356;2023-04-24T21:07:15;1.98;1.98;
61804;PMS7003;47725;47.912;7.356;2023-04-24T21:11:15;1.98;1.98;
61804;PMS7003;47725;47.912;7.356;2023-04-24T21:15:15;1.98;1.98;
61804;PMS7003;47725;47.912;7.356;2023-04-24T21:19:15;3.95;1.97;
61804;PMS7003;47725;47.912;7.356;2023-04-24T21:23:15;3.95;1.97;
61804;PMS7003;47725;47.912;7.356;2023-04-24T21:27:15;0.98;0.98;
61804;PMS7003;47725;47.912;7.356;2023-04-24T21:31:15;0.98;0.98;
61804;PMS7003;47725;47.912;7.356;2023-04-24T21:35:15;0.98;0.98;
61804;PMS7003;47725;47.912;7.356;2023-04-24T21:39:15;0.98;0.98;
61804;PMS7003;47725;47.912;7.356;2023-04-24T21:43:16;0.98;0.98;
61804;PMS7003;47725;47.912;7.356;2023-04-24T21:47:15;1.96;1.96;
61804;PMS7003;47725;47.912;7.356;2023-04-24T21:51:15;1.96;1.96;
61804;PMS7003;47725;47.912;7.356;2023-04-24T21:55:16;1.96;1.96;
61804;PMS7003;47725;47.912;7.356;2023-04-24T21:59:15;4.90;0.98;
61804;PMS7003;47725;47.912;7.356;2023-04-24T22:03:15;4.90;0.98;
61804;PMS7003;47725;47.912;7.356;2023-04-24T22:07:15;1.96;1.96;
61804;PMS7003;47725;47.912;7.356;2023-04-24T22:11:15;1.96;1.96;
61804;PMS7003;47725;47.912;7.356;2023-04-24T22:15:15;1.96;1.96;
61804;PMS7003;47725;47.912;7.356;2023-04-24T22:19:15;0.98;0.98;
61804;PMS7003;47725;47.912;7.356;2023-04-24T22:23:15;0.98;0.98;
61804;PMS7003;47725;47.912;7.356;2023-04-24T22:27:15;1.96;1.96;
61804;PMS7003;47725;47.912;7.356;2023-04-24T22:31:15;1.96;1.96;
61804;PMS7003;47725;47.912;7.356;2023-04-24T22:35:15;1.96;1.96;
61804;PMS7003;47725;47.912;7.356;2023-04-24T22:39:16;0.98;0.98;
61804;PMS7003;47725;47.912;7.356;2023-04-24T22:43:15;0.98;0.98;
61804;PMS7003;47725;47.912;7.356;2023-04-24T22:47:15;1.95;0.98;
61804;PMS7003;47725;47.912;7.356;2023-04-24T22:51:15;1.95;0.98;
61804;PMS7003;47725;47.912;7.356;2023-04-24T22:55:15;1.95;0.98;
61804;PMS7003;47725;47.912;7.356;2023-04-24T22:59:15;2.93;0.98;
61804;PMS7003;47725;47.912;7.356;2023-04-24T23:03:15;2.93;0.98;
61804;PMS7003;47725;47.912;7.356;2023-04-24T23:07:15;0.00;0.00;
61804;PMS7003;47725;47.912;7.356;2023-04-24T23:11:15;0.00;0.00;
61804;PMS7003;47725;47.912;7.356;2023-04-24T23:15:15;0.00;0.00;
61804;PMS7003;47725;47.912;7.356;2023-04-24T23:19:15;0.97;0.97;
61804;PMS7003;47725;47.912;7.356;2023-04-24T23:23:15;0.97;0.97;
61804;PMS7003;47725;47.912;7.356;2023-04-24T23:27:15;0.00;0.00;
61804;PMS7003;47725;47.912;7.356;2023-04-24T23:31:15;0.00;0.00;
61804;PMS7003;47725;47.912;7.356;2023-04-24T23:35:15;0.00;0.00;
61804;PMS7003;47725;47.912;7.356;2023-04-24T23:39:15;0.97;0.00;
61804;PMS7003;47725;47.912;7.356;2023-04-24T23:43:15;0.97;0.00;
61804;PMS7003;47725;47.912;7.356;2023-04-24T23:47:15;0.97;0.97;
61804;PMS7003;47725;47.912;7.356;2023-04-24T23:51:15;0.97;0.97;
61804;PMS7003;47725;47.912;7.356;2023-04-24T23:55:15;0.97;0.97;
61804;PMS7003;47725;47.912;7.356;2023-04-24T23:59:15;1.95;0.97;
